createdAt,value
2022-12-15T00:01:56.944Z,5.30
2022-12-15T00:04:39.778Z,5.10
2022-12-15T00:07:25.140Z,4.75
2022-12-15T00:10:07.962Z,4.07
2022-12-15T00:12:50.730Z,4.85
2022-12-15T00:15:33.816Z,5.00
2022-12-15T00:18:20.371Z,5.50
2022-12-15T00:21:03.249Z,5.45
2022-12-15T00:23:48.667Z,4.90
2022-12-15T00:26:31.632Z,5.30
2022-12-15T00:29:14.815Z,4.60
2022-12-15T00:31:57.884Z,5.82
2022-12-15T00:34:40.700Z,4.85
2022-12-15T00:37:23.642Z,6.25
2022-12-15T00:40:04.555Z,6.10
2022-12-15T00:42:35.101Z,5.65
2022-12-15T00:45:05.721Z,6.88
2022-12-15T00:47:34.412Z,6.32
2022-12-15T00:50:17.216Z,8.43
2022-12-15T00:52:59.984Z,6.53
2022-12-15T00:55:45.322Z,8.60
2022-12-15T00:58:28.107Z,8.77
2022-12-15T01:01:10.921Z,6.47
2022-12-15T01:03:53.940Z,7.47
2022-12-15T01:06:36.918Z,6.93
2022-12-15T01:09:20.937Z,7.75
2022-12-15T01:12:06.286Z,11.18
2022-12-15T01:14:51.941Z,7.90
2022-12-15T01:17:34.963Z,8.48
2022-12-15T01:20:20.487Z,11.50
2022-12-15T01:22:53.307Z,11.95
2022-12-15T01:25:25.824Z,19.35
2022-12-15T01:27:59.063Z,19.30
2022-12-15T01:30:30.355Z,21.40
2022-12-15T01:33:00.855Z,20.58
2022-12-15T01:35:31.465Z,21.33
2022-12-15T01:38:02.125Z,25.00
2022-12-15T01:40:44.981Z,28.17
2022-12-15T01:43:20.520Z,28.85
2022-12-15T01:48:27.993Z,27.45
2022-12-15T01:51:05.022Z,21.83
2022-12-15T01:53:41.108Z,30.92
2022-12-15T01:56:12.546Z,29.52
2022-12-15T01:58:47.961Z,29.48
2022-12-15T02:01:18.806Z,26.58
2022-12-15T02:03:51.705Z,19.10
2022-12-15T02:06:24.668Z,14.82
2022-12-15T02:08:58.531Z,12.60
2022-12-15T02:11:46.517Z,18.65
2022-12-15T02:14:28.971Z,12.65
2022-12-15T02:17:10.335Z,12.32
2022-12-15T02:20:04.469Z,11.48
2022-12-15T02:22:50.501Z,12.15
2022-12-15T02:28:09.550Z,12.38
2022-12-15T02:31:13.586Z,14.52
2022-12-15T02:33:49.835Z,14.63
2022-12-15T02:36:29.309Z,14.75
2022-12-15T02:38:59.735Z,10.77
2022-12-15T02:41:38.455Z,11.48
2022-12-15T02:44:14.077Z,8.55
2022-12-15T02:47:00.568Z,7.88
2022-12-15T02:49:38.691Z,7.60
2022-12-15T02:52:20.432Z,7.80
2022-12-15T02:55:12.945Z,5.82
2022-12-15T02:57:51.552Z,5.57
2022-12-15T03:00:22.957Z,8.63
2022-12-15T03:02:58.401Z,12.43
2022-12-15T03:05:31.272Z,12.02
2022-12-15T03:08:01.739Z,13.52
2022-12-15T03:10:32.354Z,11.77
2022-12-15T03:13:02.892Z,12.27
2022-12-15T03:15:35.561Z,14.40
2022-12-15T03:18:09.225Z,16.35
2022-12-15T03:20:39.820Z,14.10
2022-12-15T03:23:10.804Z,17.17
2022-12-15T03:25:41.509Z,14.63
2022-12-15T03:28:12.252Z,15.30
2022-12-15T03:30:42.915Z,16.73
2022-12-15T03:33:16.095Z,16.92
2022-12-15T03:35:46.593Z,17.17
2022-12-15T03:38:17.216Z,16.88
2022-12-15T03:40:48.081Z,16.15
2022-12-15T03:43:18.914Z,15.70
2022-12-15T03:45:49.879Z,17.42
2022-12-15T03:48:23.285Z,20.70
2022-12-15T03:50:54.209Z,16.73
2022-12-15T03:53:24.745Z,16.13
2022-12-15T03:55:55.322Z,15.90
2022-12-15T03:58:25.839Z,16.48
2022-12-15T04:00:56.364Z,15.32
2022-12-15T04:03:30.105Z,16.35
2022-12-15T04:06:01.145Z,14.95
2022-12-15T04:08:31.738Z,15.15
2022-12-15T04:11:02.573Z,15.18
2022-12-15T04:13:33.576Z,14.80
2022-12-15T04:16:05.553Z,15.18
2022-12-15T04:18:38.969Z,14.93
2022-12-15T04:21:09.632Z,14.48
2022-12-15T04:23:40.171Z,14.07
2022-12-15T04:26:22.923Z,13.70
2022-12-15T04:29:05.876Z,14.25
2022-12-15T04:31:49.728Z,14.40
2022-12-15T04:34:37.498Z,15.23
2022-12-15T04:37:23.005Z,14.48
2022-12-15T04:40:07.285Z,14.35
2022-12-15T04:42:51.522Z,14.13
2022-12-15T04:45:36.939Z,12.43
2022-12-15T04:48:20.442Z,11.85
2022-12-15T04:51:05.873Z,15.32
2022-12-15T04:53:48.644Z,14.68
2022-12-15T04:56:31.762Z,15.43
2022-12-15T04:59:15.055Z,14.38
2022-12-15T05:01:58.472Z,12.98
2022-12-15T05:04:41.475Z,14.32
2022-12-15T05:07:28.057Z,15.38
2022-12-15T05:10:14.964Z,15.80
2022-12-15T05:12:58.415Z,14.95
2022-12-15T05:15:41.251Z,14.60
2022-12-15T05:18:24.198Z,14.73
2022-12-15T05:21:07.146Z,14.02
2022-12-15T05:23:52.657Z,15.32
2022-12-15T05:26:35.514Z,12.70
2022-12-15T05:29:18.374Z,13.93
2022-12-15T05:31:55.045Z,15.15
2022-12-15T05:34:27.884Z,14.77
2022-12-15T05:36:58.963Z,14.82
2022-12-15T05:39:32.273Z,13.93
2022-12-15T05:42:02.965Z,13.60
2022-12-15T05:44:33.679Z,16.85
2022-12-15T05:47:05.079Z,16.13
2022-12-15T05:49:36.435Z,16.00
2022-12-15T05:52:07.397Z,18.40
2022-12-15T05:54:40.543Z,17.80
2022-12-15T05:57:10.995Z,15.57
2022-12-15T05:59:41.834Z,15.73
2022-12-15T06:02:12.393Z,17.80
2022-12-15T06:04:43.040Z,16.67
2022-12-15T06:07:13.850Z,15.38
2022-12-15T06:09:47.037Z,16.75
2022-12-15T06:12:17.571Z,15.20
2022-12-15T06:14:48.154Z,17.33
2022-12-15T06:17:20.587Z,16.45
2022-12-15T06:19:51.213Z,19.02
2022-12-15T06:22:21.761Z,21.45
2022-12-15T06:24:54.950Z,27.95
2022-12-15T06:27:25.593Z,22.23
2022-12-15T06:29:56.120Z,21.55
2022-12-15T06:32:26.641Z,23.15
2022-12-15T06:34:57.689Z,22.10
2022-12-15T06:37:28.184Z,23.05
2022-12-15T06:40:01.280Z,25.98
2022-12-15T06:42:32.113Z,19.25
2022-12-15T06:45:02.715Z,21.08
2022-12-15T06:47:34.510Z,22.25
2022-12-15T06:50:05.084Z,24.67
2022-12-15T06:52:35.604Z,22.05
2022-12-15T06:55:09.682Z,21.48
2022-12-15T06:57:40.094Z,18.52
2022-12-15T07:00:12.605Z,20.98
2022-12-15T07:02:49.845Z,18.92
2022-12-15T07:05:21.821Z,19.58
2022-12-15T07:07:52.562Z,17.25
2022-12-15T07:10:25.806Z,18.73
2022-12-15T07:12:58.873Z,18.67
2022-12-15T07:15:29.466Z,17.80
2022-12-15T07:17:59.995Z,16.10
2022-12-15T07:20:30.477Z,17.23
2022-12-15T07:23:01.072Z,25.00
2022-12-15T07:25:35.282Z,20.95
2022-12-15T07:28:06.858Z,18.92
2022-12-15T07:30:39.087Z,21.15
2022-12-15T07:33:09.907Z,22.20
2022-12-15T07:35:40.730Z,21.42
2022-12-15T07:38:11.840Z,22.15
2022-12-15T07:40:45.789Z,23.05
2022-12-15T07:43:16.731Z,24.10
2022-12-15T07:45:51.472Z,26.38
2022-12-15T07:48:23.991Z,24.15
2022-12-15T07:51:05.121Z,32.85
2022-12-15T07:53:40.207Z,29.95
2022-12-15T07:56:13.542Z,30.13
2022-12-15T07:58:44.501Z,30.45
2022-12-15T08:01:16.967Z,31.15
2022-12-15T08:03:48.545Z,34.10
2022-12-15T08:06:19.289Z,37.72
2022-12-15T08:08:51.339Z,37.15
2022-12-15T08:11:26.814Z,34.40
2022-12-15T08:14:07.890Z,32.47
2022-12-15T08:16:41.215Z,36.58
2022-12-15T08:19:15.455Z,40.28
2022-12-15T08:21:48.634Z,40.38
2022-12-15T08:24:19.764Z,51.95
2022-12-15T08:26:53.270Z,38.25
2022-12-15T08:29:50.226Z,35.30
2022-12-15T08:32:14.654Z,35.55
2022-12-15T08:34:47.755Z,35.65
2022-12-15T08:37:18.635Z,33.25
2022-12-15T08:39:49.080Z,31.85
2022-12-15T08:42:22.299Z,34.00
2022-12-15T08:44:53.128Z,33.83
2022-12-15T08:47:23.703Z,30.65
2022-12-15T08:49:54.849Z,30.90
2022-12-15T08:52:25.412Z,33.63
2022-12-15T08:54:56.100Z,32.22
2022-12-15T08:57:29.335Z,31.25
2022-12-15T08:59:59.940Z,29.33
2022-12-15T09:02:30.511Z,31.80
2022-12-15T09:05:01.189Z,35.20
2022-12-15T09:07:33.546Z,34.22
2022-12-15T09:10:04.448Z,34.40
2022-12-15T09:12:37.694Z,31.70
2022-12-15T09:15:09.750Z,30.20
2022-12-15T09:17:40.269Z,35.97
2022-12-15T09:20:16.608Z,29.77
2022-12-15T09:22:50.359Z,30.75
2022-12-15T09:25:21.038Z,29.55
2022-12-15T09:27:54.132Z,28.98
2022-12-15T09:30:25.066Z,29.33
2022-12-15T09:32:55.646Z,28.73
2022-12-15T09:35:28.638Z,36.63
2022-12-15T09:38:00.474Z,39.70
2022-12-15T09:40:31.319Z,36.78
2022-12-15T09:43:33.446Z,39.92
2022-12-15T09:46:07.801Z,41.25
2022-12-15T09:48:44.877Z,32.33
2022-12-15T09:51:20.138Z,27.95
2022-12-15T09:53:55.599Z,28.42
2022-12-15T09:56:34.330Z,29.27
2022-12-15T09:59:19.562Z,26.80
2022-12-15T10:01:59.169Z,23.05
2022-12-15T10:04:40.853Z,22.98
2022-12-15T10:07:19.172Z,20.23
2022-12-15T10:09:49.760Z,17.25
2022-12-15T10:12:27.516Z,22.33
2022-12-15T10:15:10.615Z,18.00
2022-12-15T10:17:50.181Z,16.27
2022-12-15T10:20:24.184Z,15.23
2022-12-15T10:22:57.106Z,25.65
2022-12-15T10:25:30.929Z,18.70
2022-12-15T10:28:14.009Z,20.00
2022-12-15T10:30:55.345Z,12.90
2022-12-15T10:33:28.759Z,15.50
2022-12-15T10:35:59.636Z,13.85
2022-12-15T10:38:38.039Z,13.93
2022-12-15T10:41:12.021Z,9.32
2022-12-15T10:43:44.311Z,9.82
2022-12-15T10:46:22.184Z,17.35
2022-12-15T10:48:54.793Z,17.30
2022-12-15T10:51:31.196Z,16.77
2022-12-15T10:54:13.482Z,11.05
2022-12-15T10:56:52.606Z,28.17
2022-12-15T10:59:28.795Z,10.95
2022-12-15T11:02:27.912Z,13.07
2022-12-15T11:05:03.143Z,24.25
2022-12-15T11:07:41.982Z,9.68
2022-12-15T11:10:20.778Z,49.10
2022-12-15T11:13:10.678Z,18.52
2022-12-15T11:15:44.443Z,15.55
2022-12-15T11:18:41.296Z,10.15
2022-12-15T11:21:17.220Z,6.17
2022-12-15T11:23:58.194Z,23.85
2022-12-15T11:26:41.022Z,8.88
2022-12-15T11:29:23.946Z,8.38
2022-12-15T11:31:57.955Z,12.80
2022-12-15T11:34:39.774Z,22.08
2022-12-15T11:37:36.311Z,12.63
2022-12-15T11:40:37.608Z,16.13
2022-12-15T11:43:34.404Z,10.80
2022-12-15T11:46:24.406Z,21.10
2022-12-15T11:49:16.558Z,10.05
2022-12-15T11:51:56.872Z,14.27
2022-12-15T11:54:32.545Z,21.02
2022-12-15T11:57:10.656Z,11.75
2022-12-15T12:00:09.209Z,14.88
2022-12-15T12:03:12.443Z,13.40
2022-12-15T12:06:01.368Z,14.02
2022-12-15T12:08:51.288Z,25.33
2022-12-15T12:11:28.247Z,46.97
2022-12-15T12:14:15.947Z,13.20
2022-12-15T12:16:56.302Z,9.20
2022-12-15T12:19:30.730Z,12.02
2022-12-15T12:22:06.752Z,18.67
2022-12-15T12:24:44.393Z,22.40
2022-12-15T12:27:28.185Z,19.17
2022-12-15T12:30:03.842Z,16.50
2022-12-15T12:32:47.388Z,8.07
2022-12-15T12:35:32.913Z,14.52
2022-12-15T12:38:05.572Z,12.68
2022-12-15T12:40:51.987Z,14.10
2022-12-15T12:43:35.260Z,21.48
2022-12-15T12:46:14.227Z,25.80
2022-12-15T12:48:49.572Z,20.80
2022-12-15T12:51:29.845Z,40.47
2022-12-15T12:54:01.107Z,26.65
2022-12-15T12:56:42.314Z,18.55
2022-12-15T12:59:39.478Z,22.90
2022-12-15T13:02:45.122Z,12.02
2022-12-15T13:05:34.310Z,15.65
2022-12-15T13:08:50.921Z,26.15
2022-12-15T13:12:14.891Z,13.60
2022-12-15T13:14:57.580Z,10.50
2022-12-15T13:17:35.705Z,13.55
2022-12-15T13:20:30.792Z,14.23
2022-12-15T13:23:31.269Z,18.40
2022-12-15T13:26:14.361Z,15.93
2022-12-15T13:28:47.897Z,22.15
2022-12-15T13:31:45.259Z,14.77
2022-12-15T13:34:32.309Z,11.07
2022-12-15T13:37:04.234Z,9.50
2022-12-15T13:40:03.002Z,12.70
2022-12-15T13:42:48.268Z,11.18
2022-12-15T13:45:53.881Z,17.30
2022-12-15T13:48:38.652Z,16.05
2022-12-15T13:51:32.571Z,11.88
2022-12-15T13:54:06.257Z,17.88
2022-12-15T13:56:52.342Z,19.58
2022-12-15T13:59:43.769Z,13.45
2022-12-15T14:02:28.961Z,14.25
2022-12-15T14:05:17.749Z,15.50
2022-12-15T14:10:44.657Z,14.18
2022-12-15T14:13:19.464Z,22.20
2022-12-15T14:15:54.062Z,18.45
2022-12-15T14:18:30.955Z,17.95
2022-12-15T14:21:08.109Z,29.05
2022-12-15T14:24:03.925Z,27.63
2022-12-15T14:26:35.527Z,25.08
2022-12-15T14:29:09.914Z,28.67
2022-12-15T14:31:41.077Z,32.45
2022-12-15T14:34:16.376Z,34.63
2022-12-15T14:36:50.674Z,25.60
2022-12-15T14:39:26.136Z,35.63
2022-12-15T14:41:58.309Z,32.03
2022-12-15T14:44:37.982Z,39.53
2022-12-15T14:47:11.466Z,43.42
2022-12-15T14:49:45.539Z,45.58
2022-12-15T14:52:30.381Z,44.83
2022-12-15T14:55:03.300Z,60.42
2022-12-15T14:57:44.487Z,58.17
2022-12-15T15:00:28.889Z,58.38
2022-12-15T15:03:05.769Z,12.63
2022-12-15T15:06:21.686Z,77.82
2022-12-15T15:08:56.302Z,80.20
2022-12-15T15:11:31.022Z,83.20
2022-12-15T15:14:07.518Z,67.50
2022-12-15T15:16:40.825Z,68.07
2022-12-15T15:19:19.443Z,70.07
2022-12-15T15:21:50.854Z,71.28
2022-12-15T15:24:33.038Z,70.43
2022-12-15T15:27:26.999Z,68.53
2022-12-15T15:30:17.696Z,65.07
2022-12-15T15:32:58.009Z,74.13
2022-12-15T15:35:33.289Z,77.55
2022-12-15T15:38:08.377Z,73.53
2022-12-15T15:40:41.413Z,64.68
2022-12-15T15:43:14.956Z,75.43
2022-12-15T15:45:45.578Z,76.10
2022-12-15T15:48:21.054Z,88.68
2022-12-15T15:50:51.771Z,81.32
2022-12-15T15:53:25.527Z,122.28
2022-12-15T15:55:58.915Z,123.07
2022-12-15T15:58:30.027Z,111.68
2022-12-15T16:01:00.837Z,140.00
2022-12-15T16:03:32.252Z,138.98
2022-12-15T16:06:02.829Z,105.65
2022-12-15T16:08:36.860Z,77.25
2022-12-15T16:11:13.811Z,79.35
2022-12-15T16:13:44.958Z,76.70
2022-12-15T16:16:21.824Z,70.22
2022-12-15T16:18:52.610Z,72.65
2022-12-15T16:21:25.746Z,75.25
2022-12-15T16:23:57.395Z,72.65
2022-12-15T16:26:33.467Z,61.55
2022-12-15T16:29:04.469Z,68.15
2022-12-15T16:31:41.449Z,68.38
2022-12-15T16:34:12.591Z,70.55
2022-12-15T16:36:44.011Z,84.53
2022-12-15T16:39:28.057Z,111.65
2022-12-15T16:42:01.380Z,116.82
2022-12-15T16:44:32.418Z,110.93
2022-12-15T16:47:02.943Z,118.32
2022-12-15T16:49:39.828Z,129.30
2022-12-15T16:52:21.482Z,136.10
2022-12-15T16:54:53.053Z,127.40
2022-12-15T16:57:26.221Z,133.50
2022-12-15T16:59:56.964Z,140.45
2022-12-15T17:02:30.513Z,141.73
2022-12-15T17:05:01.206Z,114.07
2022-12-15T17:07:32.400Z,111.78
2022-12-15T17:10:03.170Z,90.90
2022-12-15T17:12:36.729Z,90.63
2022-12-15T17:15:18.699Z,75.20
2022-12-15T17:17:49.289Z,75.30
2022-12-15T17:20:31.055Z,73.03
2022-12-15T17:23:05.892Z,75.65
2022-12-15T17:26:19.538Z,79.32
2022-12-15T17:28:37.014Z,74.00
2022-12-15T17:31:07.886Z,80.63
2022-12-15T17:33:38.543Z,73.40
2022-12-15T17:36:18.335Z,77.50
2022-12-15T17:38:49.343Z,67.88
2022-12-15T17:41:42.818Z,71.18
2022-12-15T17:44:38.314Z,77.82
2022-12-15T17:47:11.045Z,94.18
2022-12-15T17:49:41.839Z,73.43
2022-12-15T17:52:25.367Z,52.47
2022-12-15T17:54:56.213Z,58.13
2022-12-15T17:57:26.984Z,58.75
2022-12-15T18:00:02.169Z,61.40
2022-12-15T18:02:37.252Z,58.20
2022-12-15T18:05:09.613Z,53.65
2022-12-15T18:07:40.436Z,57.05
2022-12-15T18:10:24.306Z,53.47
2022-12-15T18:12:54.957Z,54.53
2022-12-15T18:15:30.166Z,64.60
2022-12-15T18:18:02.258Z,56.80
2022-12-15T18:20:32.951Z,57.15
2022-12-15T18:23:03.829Z,67.60
2022-12-15T18:25:34.397Z,77.32
2022-12-15T18:28:05.338Z,62.80
2022-12-15T18:30:38.932Z,63.88
2022-12-15T18:33:12.644Z,62.03
2022-12-15T18:35:45.387Z,55.28
2022-12-15T18:38:20.793Z,71.50
2022-12-15T18:40:52.967Z,106.25
2022-12-15T18:43:26.037Z,67.82
2022-12-15T18:45:59.521Z,60.30
2022-12-15T18:48:31.808Z,53.53
2022-12-15T18:51:05.053Z,72.57
2022-12-15T18:53:38.869Z,105.07
2022-12-15T18:56:10.219Z,118.32
2022-12-15T18:58:42.654Z,60.33
2022-12-15T19:01:16.455Z,57.47
2022-12-15T19:03:47.206Z,52.75
2022-12-15T19:06:35.229Z,45.30
2022-12-15T19:09:06.260Z,52.40
2022-12-15T19:11:36.963Z,45.75
2022-12-15T19:14:33.773Z,50.92
2022-12-15T19:17:19.182Z,49.58
2022-12-15T19:20:01.901Z,39.75
2022-12-15T19:22:33.951Z,43.95
2022-12-15T19:25:06.244Z,79.72
2022-12-15T19:27:36.867Z,49.97
2022-12-15T19:30:16.800Z,42.88
2022-12-15T19:32:50.323Z,36.58
2022-12-15T19:35:20.945Z,38.45
2022-12-15T19:37:55.327Z,39.70
2022-12-15T19:40:30.512Z,33.07
2022-12-15T19:43:04.514Z,40.20
2022-12-15T19:45:36.008Z,56.22
2022-12-15T19:48:09.516Z,65.55
2022-12-15T19:50:40.981Z,51.67
2022-12-15T19:53:18.945Z,48.83
2022-12-15T19:55:49.513Z,48.97
2022-12-15T19:58:28.170Z,43.75
2022-12-15T20:01:01.183Z,44.05
2022-12-15T20:03:36.219Z,74.57
2022-12-15T20:06:13.706Z,45.17
2022-12-15T20:08:45.967Z,49.15
2022-12-15T20:11:22.257Z,43.67
2022-12-15T20:13:53.575Z,45.33
2022-12-15T20:16:25.013Z,42.70
2022-12-15T20:18:59.898Z,38.75
2022-12-15T20:21:34.457Z,103.47
2022-12-15T20:24:08.938Z,126.25
2022-12-15T20:26:40.869Z,112.55
2022-12-15T20:29:23.813Z,129.80
2022-12-15T20:31:55.700Z,133.02
2022-12-15T20:34:28.974Z,122.20
2022-12-15T20:36:59.653Z,127.78
2022-12-15T20:39:32.560Z,128.57
2022-12-15T20:42:03.199Z,138.73
2022-12-15T20:44:33.713Z,129.00
2022-12-15T20:47:04.301Z,129.05
2022-12-15T20:49:37.497Z,94.45
2022-12-15T20:52:08.263Z,125.10
2022-12-15T20:54:39.897Z,129.63
2022-12-15T20:57:12.187Z,112.95
2022-12-15T20:59:43.042Z,123.13
2022-12-15T21:02:25.256Z,96.07
2022-12-15T21:04:58.574Z,97.43
2022-12-15T21:07:29.429Z,99.38
2022-12-15T21:10:00.025Z,83.75
2022-12-15T21:12:31.647Z,43.88
2022-12-15T21:15:02.238Z,79.70
2022-12-15T21:17:38.684Z,72.82
2022-12-15T21:20:16.277Z,47.65
2022-12-15T21:22:46.964Z,66.38
2022-12-15T21:25:27.110Z,57.33
2022-12-15T21:27:57.849Z,67.55
2022-12-15T21:30:28.518Z,52.38
2022-12-15T21:32:59.106Z,36.63
2022-12-15T21:35:32.396Z,65.15
2022-12-15T21:38:03.046Z,47.22
2022-12-15T21:40:33.780Z,43.28
2022-12-15T21:43:07.503Z,47.85
2022-12-15T21:45:38.679Z,43.85
2022-12-15T21:48:22.045Z,43.70
2022-12-15T21:50:55.259Z,39.00
2022-12-15T21:53:26.231Z,35.22
2022-12-15T21:55:57.990Z,30.85
2022-12-15T21:58:28.741Z,36.25
2022-12-15T22:00:59.491Z,34.55
2022-12-15T22:03:30.227Z,98.60
2022-12-15T22:06:03.848Z,59.78
2022-12-15T22:08:35.471Z,28.75
2022-12-15T22:11:15.508Z,26.70
2022-12-15T22:13:46.140Z,21.73
2022-12-15T22:16:17.069Z,27.42
2022-12-15T22:18:51.711Z,47.10
2022-12-15T22:21:25.394Z,38.75
2022-12-15T22:23:56.022Z,36.78
2022-12-15T22:26:30.025Z,37.67
2022-12-15T22:29:03.752Z,34.80
2022-12-15T22:31:34.366Z,38.88
2022-12-15T22:34:05.045Z,49.80
2022-12-15T22:36:38.244Z,49.25
2022-12-15T22:39:11.271Z,48.13
2022-12-15T22:41:43.950Z,46.22
2022-12-15T22:44:20.401Z,46.85
2022-12-15T22:46:52.489Z,58.53
2022-12-15T22:49:28.160Z,53.13
2022-12-15T22:52:01.384Z,45.58
2022-12-15T22:54:33.992Z,50.20
2022-12-15T22:57:06.888Z,52.15
2022-12-15T22:59:41.489Z,50.38
2022-12-15T23:02:12.976Z,53.92
2022-12-15T23:04:44.029Z,49.40
2022-12-15T23:07:17.177Z,51.17
2022-12-15T23:09:47.799Z,53.33
2022-12-15T23:12:16.312Z,53.08
2022-12-15T23:14:59.032Z,50.50
2022-12-15T23:17:29.487Z,48.33
2022-12-15T23:19:59.923Z,13.48
2022-12-15T23:22:32.999Z,10.48
2022-12-15T23:25:04.442Z,9.98
2022-12-15T23:27:35.062Z,10.40
2022-12-15T23:30:05.994Z,6.18
2022-12-15T23:32:38.899Z,8.60
2022-12-15T23:35:10.899Z,5.65
2022-12-15T23:37:44.143Z,8.45
2022-12-15T23:40:21.536Z,4.97
2022-12-15T23:42:53.818Z,4.45
2022-12-15T23:45:25.693Z,5.15
2022-12-15T23:47:56.272Z,6.55
2022-12-15T23:50:26.861Z,6.18
2022-12-15T23:53:00.115Z,5.90
2022-12-15T23:55:30.619Z,5.88
2022-12-15T23:58:01.166Z,6.57
